createdAt,value
2023-03-30T00:01:22.201Z,98628.81
2023-03-30T00:03:51.045Z,98629.72
2023-03-30T00:06:22.804Z,98622.31
2023-03-30T00:08:58.656Z,98616.16
2023-03-30T00:11:28.665Z,98615.47
2023-03-30T00:13:57.455Z,98615.59
2023-03-30T00:16:26.351Z,98604.34
2023-03-30T00:18:55.731Z,98589.13
2023-03-30T00:21:24.785Z,98594.84
2023-03-30T00:23:54.830Z,98579.41
2023-03-30T00:26:23.661Z,98570.81
2023-03-30T00:28:52.436Z,98557.78
2023-03-30T00:31:21.168Z,98544.22
2023-03-30T00:33:51.839Z,98534.47
2023-03-30T00:36:22.524Z,98525.44
2023-03-30T00:38:51.273Z,98521.13
2023-03-30T00:41:21.694Z,98507.88
2023-03-30T00:43:59.093Z,98524.25
2023-03-30T00:46:28.078Z,98511.03
2023-03-30T00:49:00.150Z,98509.41
2023-03-30T00:51:29.927Z,98511.59
2023-03-30T00:54:07.652Z,98541.22
2023-03-30T00:56:37.776Z,98541.34
2023-03-30T00:59:07.480Z,98533.53
2023-03-30T01:01:39.344Z,98528.19
2023-03-30T01:04:11.262Z,98524.84
2023-03-30T01:06:43.604Z,98507.19
2023-03-30T01:09:13.164Z,98499.53
2023-03-30T01:11:44.989Z,98496.38
2023-03-30T01:14:16.789Z,98475.84
2023-03-30T01:16:57.941Z,98468.44
2023-03-30T01:20:22.529Z,98441.38
2023-03-30T01:23:27.704Z,98440.31
2023-03-30T01:26:32.976Z,98427.53
2023-03-30T01:29:12.618Z,98416.06
2023-03-30T01:32:32.584Z,98417.84
2023-03-30T01:35:28.179Z,98405.31
2023-03-30T01:38:58.699Z,98384.88
2023-03-30T01:41:38.248Z,98382.56
2023-03-30T01:44:19.645Z,98411.50
2023-03-30T01:46:57.362Z,98409.88
2023-03-30T01:49:33.025Z,98385.13
2023-03-30T01:52:09.901Z,98385.00
2023-03-30T01:54:47.294Z,98383.38
2023-03-30T01:57:22.577Z,98388.38
2023-03-30T01:59:58.134Z,98395.13
2023-03-30T02:02:32.862Z,98407.19
2023-03-30T02:05:07.385Z,98403.59
2023-03-30T02:07:39.783Z,98407.88
2023-03-30T02:10:13.390Z,98410.81
2023-03-30T02:12:45.806Z,98414.16
2023-03-30T02:15:19.037Z,98395.94
2023-03-30T02:17:48.560Z,98401.25
2023-03-30T02:20:19.070Z,98387.34
2023-03-30T02:22:49.531Z,98394.28
2023-03-30T02:25:19.333Z,98378.03
2023-03-30T02:27:50.154Z,98366.25
2023-03-30T02:30:19.475Z,98381.44
2023-03-30T02:32:53.411Z,98371.81
2023-03-30T02:36:04.945Z,98369.25
2023-03-30T02:39:05.110Z,98359.63
2023-03-30T02:42:16.761Z,98359.63
2023-03-30T02:45:01.146Z,98358.00
2023-03-30T02:47:42.866Z,98357.88
2023-03-30T03:54:24.878Z,98276.25
2023-03-30T03:56:54.702Z,98281.31
2023-03-30T03:59:24.029Z,98269.78
2023-03-30T04:01:53.395Z,98263.97
2023-03-30T04:04:22.276Z,98255.63
2023-03-30T04:06:51.556Z,98252.03
2023-03-30T04:09:21.640Z,98262.03
2023-03-30T04:12:14.939Z,98267.38
2023-03-30T04:15:07.893Z,98266.13
2023-03-30T04:18:02.910Z,98254.41
2023-03-30T04:20:52.655Z,98251.53
2023-03-30T04:23:48.665Z,98255.59
2023-03-30T04:26:20.182Z,98253.13
2023-03-30T04:29:06.838Z,98259.53
2023-03-30T04:31:54.220Z,98274.59
2023-03-30T04:34:42.714Z,98283.75
2023-03-30T04:37:30.202Z,98286.75
2023-03-30T04:40:17.430Z,98272.28
2023-03-30T04:43:10.387Z,98273.78
2023-03-30T04:45:52.752Z,98262.44
2023-03-30T04:48:37.912Z,98277.63
2023-03-30T04:51:25.195Z,98279.00
2023-03-30T04:54:33.308Z,98278.78
2023-03-30T04:57:02.438Z,98286.41
2023-03-30T04:59:49.276Z,98276.94
2023-03-30T05:02:48.249Z,98277.75
2023-03-30T05:05:45.885Z,98272.03
2023-03-30T05:08:39.922Z,98268.47
2023-03-30T05:11:13.192Z,98258.84
2023-03-30T05:14:00.403Z,98259.75
2023-03-30T05:16:55.374Z,98257.34
2023-03-30T05:19:36.889Z,98256.41
2023-03-30T05:22:17.060Z,98246.88
2023-03-30T05:25:24.509Z,98255.69
2023-03-30T05:28:03.364Z,98243.84
2023-03-30T05:30:55.143Z,98245.69
2023-03-30T05:33:43.948Z,98250.53
2023-03-30T05:36:40.864Z,98235.69
2023-03-30T05:39:48.209Z,98228.81
2023-03-30T05:42:24.092Z,98225.19
2023-03-30T05:45:11.454Z,98222.19
2023-03-30T05:48:15.370Z,98235.28
2023-03-30T05:50:49.704Z,98232.84
2023-03-30T05:53:30.489Z,98235.66
2023-03-30T05:56:07.277Z,98234.00
2023-03-30T05:58:54.620Z,98253.34
2023-03-30T06:01:54.321Z,98273.38
2023-03-30T06:04:23.139Z,98264.47
2023-03-30T06:06:51.970Z,98265.84
2023-03-30T06:09:24.128Z,98273.22
2023-03-30T06:11:53.440Z,98267.97
2023-03-30T06:14:25.807Z,98265.38
2023-03-30T06:17:17.544Z,98268.94
2023-03-30T06:19:46.414Z,98265.28
2023-03-30T06:22:15.564Z,98263.50
2023-03-30T06:24:50.614Z,98260.91
2023-03-30T06:27:19.419Z,98265.22
2023-03-30T06:29:48.696Z,98260.03
2023-03-30T06:32:17.736Z,98255.31
2023-03-30T06:34:55.512Z,98252.19
2023-03-30T06:37:27.097Z,98250.41
2023-03-30T06:39:57.345Z,98247.81
2023-03-30T06:42:28.662Z,98242.28
2023-03-30T06:45:14.354Z,98229.47
2023-03-30T06:47:43.924Z,98233.81
2023-03-30T06:50:13.552Z,98227.00
2023-03-30T06:53:00.963Z,98222.78
2023-03-30T06:55:36.983Z,98227.59
2023-03-30T06:58:05.850Z,98221.44
2023-03-30T07:00:35.014Z,98215.91
2023-03-30T07:03:22.591Z,98219.19
2023-03-30T07:06:10.923Z,98214.91
2023-03-30T07:08:41.605Z,98212.88
2023-03-30T07:11:15.001Z,98206.50
2023-03-30T07:13:43.687Z,98200.19
2023-03-30T07:16:12.520Z,98185.88
2023-03-30T07:18:41.231Z,98181.06
2023-03-30T07:21:09.892Z,98192.41
2023-03-30T07:23:43.418Z,98183.41
2023-03-30T07:26:19.587Z,98188.09
2023-03-30T07:28:56.523Z,98176.63
2023-03-30T07:31:27.397Z,98169.47
2023-03-30T07:33:56.957Z,98168.16
2023-03-30T07:36:28.732Z,98151.63
2023-03-30T07:38:58.550Z,98141.75
2023-03-30T07:41:29.064Z,98145.81
2023-03-30T07:44:00.824Z,98151.78
2023-03-30T07:46:30.099Z,98147.00
2023-03-30T07:48:58.858Z,98153.50
2023-03-30T07:51:29.620Z,98158.63
2023-03-30T07:54:05.383Z,98156.25
2023-03-30T07:56:52.657Z,98156.84
2023-03-30T07:59:23.809Z,98149.63
2023-03-30T08:01:55.278Z,98142.91
2023-03-30T08:04:46.856Z,98140.22
2023-03-30T08:07:18.947Z,98130.28
2023-03-30T08:09:49.780Z,98132.69
2023-03-30T08:12:19.864Z,98134.03
2023-03-30T08:14:48.509Z,98142.09
2023-03-30T08:17:17.211Z,98131.31
2023-03-30T08:19:46.172Z,98131.31
2023-03-30T08:22:14.899Z,98131.56
2023-03-30T08:24:43.593Z,98119.69
2023-03-30T08:27:12.436Z,98121.81
2023-03-30T08:29:42.558Z,98125.59
2023-03-30T08:32:11.182Z,98121.78
2023-03-30T08:34:40.055Z,98128.97
2023-03-30T08:37:08.778Z,98124.38
2023-03-30T08:39:37.652Z,98128.03
2023-03-30T08:42:40.788Z,98140.97
2023-03-30T08:45:14.776Z,98138.28
2023-03-30T08:47:49.993Z,98134.03
2023-03-30T08:50:31.281Z,98143.72
2023-03-30T08:53:00.461Z,98140.00
2023-03-30T08:55:43.974Z,98150.00
2023-03-30T08:58:28.310Z,98148.13
2023-03-30T09:01:11.290Z,98153.81
2023-03-30T09:03:50.677Z,98158.91
2023-03-30T09:06:32.259Z,98166.75
2023-03-30T09:09:01.537Z,98167.56
2023-03-30T09:11:37.582Z,98183.19
2023-03-30T09:14:13.791Z,98178.38
2023-03-30T09:16:52.996Z,98180.00
2023-03-30T09:19:32.035Z,98193.16
2023-03-30T09:22:06.976Z,98205.00
2023-03-30T09:24:36.469Z,98199.09
2023-03-30T09:27:17.264Z,98212.28
2023-03-30T09:29:51.638Z,98220.91
2023-03-30T09:32:32.500Z,98217.09
2023-03-30T09:35:09.215Z,98220.84
2023-03-30T09:37:38.300Z,98220.84
2023-03-30T09:40:32.514Z,98227.31
2023-03-30T09:43:16.209Z,98221.94
2023-03-30T09:45:53.311Z,98213.06
2023-03-30T09:48:23.641Z,98222.50
2023-03-30T09:50:52.905Z,98215.22
2023-03-30T09:53:29.387Z,98218.16
2023-03-30T09:56:10.203Z,98217.63
2023-03-30T09:58:39.750Z,98226.75
2023-03-30T10:01:12.554Z,98235.91
2023-03-30T10:03:45.933Z,98240.19
2023-03-30T10:06:21.732Z,98235.38
2023-03-30T10:08:55.108Z,98235.88
2023-03-30T10:11:38.068Z,98225.13
2023-03-30T10:14:07.962Z,98224.59
2023-03-30T10:16:37.259Z,98219.22
2023-03-30T10:19:20.257Z,98221.63
2023-03-30T10:21:49.381Z,98200.94
2023-03-30T10:24:26.016Z,98201.47
2023-03-30T10:26:58.409Z,98198.25
2023-03-30T10:29:31.285Z,98199.59
2023-03-30T10:32:04.537Z,98201.47
2023-03-30T10:34:53.440Z,98184.53
2023-03-30T10:37:32.044Z,98185.13
2023-03-30T10:40:05.225Z,98196.38
2023-03-30T10:42:34.923Z,98196.13
2023-03-30T10:45:07.086Z,98195.06
2023-03-30T10:48:04.554Z,98215.50
2023-03-30T10:50:47.068Z,98206.63
2023-03-30T10:53:37.320Z,98203.66
2023-03-30T10:56:22.869Z,98185.91
2023-03-30T10:59:59.286Z,98171.69
2023-03-30T11:02:53.217Z,98131.09
2023-03-30T11:05:31.018Z,98123.00
2023-03-30T11:08:07.627Z,98142.09
2023-03-30T11:10:44.095Z,98155.28
2023-03-30T11:13:20.265Z,98207.97
2023-03-30T11:15:54.066Z,98212.50
2023-03-30T11:18:30.629Z,98209.06
2023-03-30T11:21:05.754Z,98199.84
2023-03-30T11:23:46.899Z,98202.25
2023-03-30T11:26:22.471Z,98200.13
2023-03-30T11:29:02.025Z,98196.59
2023-03-30T11:31:49.896Z,98198.22
2023-03-30T11:34:31.302Z,98185.81
2023-03-30T11:37:13.526Z,98179.31
2023-03-30T11:42:39.751Z,98187.13
2023-03-30T11:45:33.611Z,98181.56
2023-03-30T11:48:23.390Z,98172.22
2023-03-30T11:51:13.365Z,98173.56
2023-03-30T11:53:54.755Z,98161.22
2023-03-30T11:56:38.821Z,98152.06
2023-03-30T11:59:23.753Z,98143.13
2023-03-30T12:02:09.852Z,98134.38
2023-03-30T12:04:47.571Z,98131.19
2023-03-30T12:07:33.105Z,98126.56
2023-03-30T12:10:08.353Z,98122.03
2023-03-30T12:12:40.376Z,98112.69
2023-03-30T12:15:43.800Z,98114.50
2023-03-30T12:18:27.939Z,98102.28
2023-03-30T12:21:13.132Z,98088.69
2023-03-30T12:23:51.694Z,98090.09
2023-03-30T12:26:28.227Z,98086.38
2023-03-30T12:32:07.552Z,98068.13
2023-03-30T12:34:41.746Z,98054.56
2023-03-30T12:37:18.277Z,98066.03
2023-03-30T12:39:50.852Z,98066.25
2023-03-30T12:42:28.022Z,98070.31
2023-03-30T12:45:26.986Z,98068.47
2023-03-30T12:48:26.356Z,98050.63
2023-03-30T12:51:16.469Z,98041.41
2023-03-30T12:54:32.091Z,98047.31
2023-03-30T12:57:19.447Z,98055.59
2023-03-30T13:00:52.911Z,98048.47
2023-03-30T13:03:53.067Z,98031.31
2023-03-30T13:06:32.109Z,98040.13
2023-03-30T13:09:34.058Z,98051.56
2023-03-30T13:12:43.981Z,98044.97
2023-03-30T13:15:43.258Z,98029.63
2023-03-30T13:18:56.981Z,98024.03
2023-03-30T13:21:27.188Z,98016.50
2023-03-30T13:24:22.475Z,98028.59
2023-03-30T13:26:54.128Z,98033.22
2023-03-30T13:29:31.605Z,98039.03
2023-03-30T13:32:25.581Z,98043.94
2023-03-30T13:35:13.437Z,98037.06
2023-03-30T13:38:16.935Z,98029.16
2023-03-30T13:41:04.713Z,98029.84
2023-03-30T13:44:00.790Z,98035.47
2023-03-30T13:46:41.986Z,98036.38
2023-03-30T13:49:34.090Z,98035.88
2023-03-30T13:52:12.462Z,98036.16
2023-03-30T13:54:44.362Z,98017.84
2023-03-30T13:57:20.259Z,98007.50
2023-03-30T13:59:55.986Z,98003.94
2023-03-30T14:02:30.735Z,98010.78
2023-03-30T14:05:20.663Z,98022.16
2023-03-30T14:07:55.234Z,98014.28
2023-03-30T14:10:24.541Z,97986.75
2023-03-30T14:12:56.906Z,97995.59
2023-03-30T14:15:34.210Z,98002.38
2023-03-30T14:18:05.284Z,97985.59
2023-03-30T14:20:54.593Z,97998.28
2023-03-30T14:23:35.367Z,97995.25
2023-03-30T14:26:07.918Z,97985.50
2023-03-30T14:28:38.728Z,97986.19
2023-03-30T14:31:15.906Z,97977.41
2023-03-30T14:33:45.850Z,97987.03
2023-03-30T14:36:18.362Z,97981.47
2023-03-30T14:38:51.552Z,97981.16
2023-03-30T14:41:27.795Z,97982.59
2023-03-30T14:44:00.058Z,97971.91
2023-03-30T14:46:42.533Z,97973.25
2023-03-30T14:49:20.336Z,97976.78
2023-03-30T14:51:52.023Z,97964.06
2023-03-30T14:54:25.944Z,97976.41
2023-03-30T14:57:00.708Z,97971.56
2023-03-30T14:59:32.564Z,97973.06
2023-03-30T15:02:03.292Z,97976.81
2023-03-30T15:04:38.637Z,97985.50
2023-03-30T15:07:07.847Z,97985.28
2023-03-30T15:09:40.195Z,98006.88
2023-03-30T15:12:09.610Z,98020.31
2023-03-30T15:14:41.762Z,98022.72
2023-03-30T15:17:17.117Z,97994.50
2023-03-30T15:19:48.687Z,97985.97
2023-03-30T15:22:30.401Z,97984.78
2023-03-30T15:25:06.946Z,97986.91
2023-03-30T15:27:39.968Z,97992.16
2023-03-30T15:30:25.979Z,97977.56
2023-03-30T15:32:57.776Z,97966.63
2023-03-30T15:35:32.009Z,97965.22
2023-03-30T15:38:03.946Z,97963.72
2023-03-30T15:40:40.539Z,97962.44
2023-03-30T15:43:25.265Z,97970.63
2023-03-30T15:45:57.241Z,98056.34
2023-03-30T15:48:32.152Z,98107.59
2023-03-30T15:51:09.474Z,98153.38
2023-03-30T15:53:44.811Z,98149.63
2023-03-30T15:56:23.984Z,98151.75
2023-03-30T15:58:53.525Z,98149.97
2023-03-30T16:01:25.757Z,98138.44
2023-03-30T16:04:01.407Z,98129.59
2023-03-30T16:06:31.822Z,98128.78
2023-03-30T16:09:00.896Z,98137.94
2023-03-30T16:11:31.463Z,98129.88
2023-03-30T16:14:01.326Z,98121.81
2023-03-30T16:16:30.175Z,98143.94
2023-03-30T16:18:59.060Z,98131.56
2023-03-30T16:21:28.028Z,98112.75
2023-03-30T16:24:06.297Z,98099.31
2023-03-30T16:26:37.333Z,98070.31
2023-03-30T16:29:06.349Z,98081.56
2023-03-30T16:31:36.508Z,98089.13
2023-03-30T16:34:06.020Z,98086.44
2023-03-30T16:36:34.852Z,98089.97
2023-03-30T16:39:05.612Z,98093.47
2023-03-30T16:41:35.961Z,98090.78
2023-03-30T16:44:06.297Z,98090.78
2023-03-30T16:46:35.153Z,98096.16
2023-03-30T16:49:05.650Z,98095.06
2023-03-30T16:51:34.566Z,98080.81
2023-03-30T16:54:04.360Z,98085.66
2023-03-30T16:56:33.143Z,98098.84
2023-03-30T16:59:05.657Z,98107.44
2023-03-30T17:01:35.467Z,98112.28
2023-03-30T17:04:09.644Z,98108.78
2023-03-30T17:06:38.451Z,98107.47
2023-03-30T17:09:10.790Z,98114.97
2023-03-30T17:11:39.855Z,98127.34
2023-03-30T17:14:10.150Z,98128.94
2023-03-30T17:16:39.386Z,98128.44
2023-03-30T17:19:23.664Z,98136.22
2023-03-30T17:22:01.440Z,98138.09
2023-03-30T17:24:42.463Z,98137.56
2023-03-30T17:27:15.910Z,98140.75
2023-03-30T17:29:48.396Z,98142.66
2023-03-30T17:32:17.879Z,98145.09
2023-03-30T17:34:53.562Z,98147.75
2023-03-30T17:37:29.212Z,98142.38
2023-03-30T17:39:59.763Z,98144.22
2023-03-30T17:42:39.421Z,98142.63
2023-03-30T17:45:12.099Z,98144.50
2023-03-30T17:47:42.211Z,98149.84
2023-03-30T17:50:23.732Z,98146.88
2023-03-30T17:52:53.887Z,98145.56
2023-03-30T17:55:31.777Z,98137.75
2023-03-30T17:58:01.606Z,98147.16
2023-03-30T18:00:35.002Z,98146.63
2023-03-30T18:03:05.124Z,98150.63
2023-03-30T18:05:34.676Z,98145.53
2023-03-30T18:08:03.465Z,98143.63
2023-03-30T18:10:38.334Z,98151.38
2023-03-30T18:13:07.951Z,98149.75
2023-03-30T18:15:39.307Z,98148.13
2023-03-30T18:18:08.355Z,98150.50
2023-03-30T18:21:12.041Z,98150.47
2023-03-30T18:23:40.856Z,98170.28
2023-03-30T18:26:21.613Z,98159.56
2023-03-30T18:29:02.148Z,98167.03
2023-03-30T18:31:32.543Z,98172.06
2023-03-30T18:34:01.494Z,98173.69
2023-03-30T18:36:30.476Z,98180.06
2023-03-30T18:38:59.104Z,98193.94
2023-03-30T18:41:27.976Z,98187.75
2023-03-30T18:43:56.624Z,98192.81
2023-03-30T18:46:25.404Z,98194.44
2023-03-30T18:48:55.580Z,98197.63
2023-03-30T18:51:24.766Z,98205.47
2023-03-30T18:53:53.559Z,98201.75
2023-03-30T18:56:22.929Z,98210.56
2023-03-30T18:58:51.589Z,98219.38
2023-03-30T19:01:20.558Z,98212.31
2023-03-30T19:03:51.718Z,98213.13
2023-03-30T19:06:23.991Z,98210.72
2023-03-30T19:08:53.097Z,98219.28
2023-03-30T19:11:27.400Z,98215.06
2023-03-30T19:14:01.080Z,98224.16
2023-03-30T19:16:33.168Z,98229.41
2023-03-30T19:19:03.135Z,98237.50
2023-03-30T19:21:33.306Z,98242.25
2023-03-30T19:24:02.611Z,98233.16
2023-03-30T19:26:31.809Z,98238.94
2023-03-30T19:29:00.715Z,98242.34
2023-03-30T19:31:29.450Z,98240.53
2023-03-30T19:33:58.363Z,98245.31
2023-03-30T19:36:27.139Z,98243.63
2023-03-30T19:39:00.317Z,98245.28
2023-03-30T19:41:29.596Z,98254.31
2023-03-30T19:43:58.679Z,98254.88
2023-03-30T19:46:27.606Z,98260.47
2023-03-30T19:48:57.915Z,98255.25
2023-03-30T19:51:26.974Z,98249.84
2023-03-30T19:53:57.805Z,98246.97
2023-03-30T19:56:26.800Z,98247.97
2023-03-30T19:58:55.676Z,98249.63
2023-03-30T20:01:25.517Z,98250.63
2023-03-30T20:03:55.486Z,98258.66
2023-03-30T20:06:24.221Z,98258.72
2023-03-30T20:08:54.213Z,98256.22
2023-03-30T20:11:25.250Z,98266.50
2023-03-30T20:13:54.087Z,98267.22
2023-03-30T20:16:26.056Z,98266.69
2023-03-30T20:18:57.453Z,98269.91
2023-03-30T20:21:27.973Z,98262.94
2023-03-30T20:23:59.006Z,98265.66
2023-03-30T20:26:30.609Z,98259.66
2023-03-30T20:29:00.881Z,98263.06
2023-03-30T20:31:30.476Z,98261.66
2023-03-30T20:33:59.828Z,98258.75
2023-03-30T20:36:29.777Z,98254.47
2023-03-30T20:38:59.671Z,98266.09
2023-03-30T20:41:37.948Z,98270.72
2023-03-30T20:44:11.360Z,98272.97
2023-03-30T20:46:43.498Z,98278.22
2023-03-30T20:49:14.027Z,98275.09
2023-03-30T20:54:38.218Z,98280.81
2023-03-30T20:57:08.568Z,98287.22
2023-03-30T20:59:37.617Z,98287.56
2023-03-30T21:02:06.673Z,98282.50
2023-03-30T21:04:36.632Z,98280.81
2023-03-30T21:07:05.408Z,98282.84
2023-03-30T21:09:34.926Z,98280.19
2023-03-30T21:12:03.899Z,98276.06
2023-03-30T21:14:34.165Z,98282.59
2023-03-30T21:17:02.954Z,98279.38
2023-03-30T21:19:31.672Z,98279.78
2023-03-30T21:22:19.208Z,98269.34
2023-03-30T21:24:47.917Z,98267.72
2023-03-30T21:27:16.687Z,98275.25
2023-03-30T21:29:47.180Z,98272.84
2023-03-30T21:32:16.061Z,98271.31
2023-03-30T21:34:44.773Z,98273.63
2023-03-30T21:37:13.544Z,98276.69
2023-03-30T21:39:44.166Z,98281.56
2023-03-30T21:42:12.896Z,98273.56
2023-03-30T21:44:41.578Z,98270.81
2023-03-30T21:47:15.087Z,98280.59
2023-03-30T21:49:44.105Z,98269.75
2023-03-30T21:52:13.087Z,98265.03
2023-03-30T21:54:41.867Z,98264.88
2023-03-30T21:57:10.740Z,98271.34
2023-03-30T21:59:39.488Z,98262.09
2023-03-30T22:02:08.427Z,98261.47
2023-03-30T22:04:38.831Z,98253.53
2023-03-30T22:07:07.590Z,98247.66
2023-03-30T22:09:36.344Z,98250.91
2023-03-30T22:12:05.718Z,98245.31
2023-03-30T22:14:34.786Z,98234.06
2023-03-30T22:17:11.403Z,98238.97
2023-03-30T22:19:44.030Z,98231.78
2023-03-30T22:22:12.741Z,98238.44
2023-03-30T22:24:41.492Z,98230.34
2023-03-30T22:27:11.495Z,98227.41
2023-03-30T22:31:18.335Z,98227.41
2023-03-30T22:33:48.060Z,98226.59
2023-03-30T22:36:21.884Z,98226.09
2023-03-30T22:38:52.771Z,98228.94
2023-03-30T22:41:24.353Z,98230.00
2023-03-30T22:43:55.109Z,98221.19
2023-03-30T22:46:33.102Z,98220.31
2023-03-30T22:49:02.545Z,98220.31
2023-03-30T22:51:34.038Z,98220.47
2023-03-30T22:54:02.855Z,98215.88
2023-03-30T22:56:32.547Z,98217.25
2023-03-30T22:59:01.923Z,98210.94
2023-03-30T23:01:48.026Z,98213.00
2023-03-30T23:04:17.148Z,98203.38
2023-03-30T23:06:48.042Z,98198.28
2023-03-30T23:09:16.835Z,98197.97
2023-03-30T23:11:46.065Z,98190.53
2023-03-30T23:14:15.502Z,98194.25
2023-03-30T23:16:46.268Z,98190.81
2023-03-30T23:19:15.048Z,98190.63
2023-03-30T23:21:44.724Z,98192.63
2023-03-30T23:24:55.667Z,98188.91
2023-03-30T23:27:24.728Z,98198.94
2023-03-30T23:29:53.482Z,98195.88
2023-03-30T23:32:22.314Z,98194.88
2023-03-30T23:34:51.129Z,98198.38
2023-03-30T23:37:21.990Z,98197.13
2023-03-30T23:39:50.912Z,98187.56
2023-03-30T23:42:21.262Z,98186.50
2023-03-30T23:44:49.966Z,98181.22
2023-03-30T23:47:18.845Z,98181.69
2023-03-30T23:49:47.708Z,98182.31
2023-03-30T23:52:16.554Z,98189.78
2023-03-30T23:54:45.300Z,98182.31
2023-03-30T23:57:14.123Z,98183.97
2023-03-30T23:59:44.280Z,98178.72
